Time;durP1;ratioP1;P1;durP2;ratioP2;P2;SDS_P1;SDS_P2;PMS_P1;PMS_P2;Temp;Humidity;BMP_temperature;BMP_pressure;BME280_temperature;BME280_humidity;BME280_pressure;Samples;Min_cycle;Max_cycle;Signal;HPM_P1;HPM_P2
2021/08/24 00:00:39;;;;;;;8.10;5.43;;;;;;;;;;4998484;28;20053;-70
2021/08/24 00:03:24;;;;;;;12.85;6.25;;;;;;;;;;5012342;28;20045;-70
2021/08/24 00:06:10;;;;;;;7.75;6.07;;;;;;;;;;5012076;28;20381;-71
2021/08/24 00:08:56;;;;;;;7.57;5.57;;;;;;;;;;4984618;28;20053;-71
2021/08/24 00:11:41;;;;;;;7.60;5.03;;;;;;;;;;5012681;28;20113;-71
2021/08/24 00:14:26;;;;;;;11.50;6.75;;;;;;;;;;5012243;28;20050;-70
2021/08/24 00:17:12;;;;;;;10.82;6.05;;;;;;;;;;5011676;28;20046;-71
2021/08/24 00:19:57;;;;;;;9.50;6.28;;;;;;;;;;5011924;28;20391;-71
2021/08/24 00:22:42;;;;;;;9.23;6.40;;;;;;;;;;5011782;28;20054;-72
2021/08/24 00:25:27;;;;;;;17.83;7.13;;;;;;;;;;5011387;28;20133;-71
2021/08/24 00:28:12;;;;;;;11.23;7.00;;;;;;;;;;4997038;28;20057;-70
2021/08/24 00:30:57;;;;;;;16.00;8.10;;;;;;;;;;5011733;28;20057;-70
2021/08/24 00:33:42;;;;;;;13.75;6.70;;;;;;;;;;5011267;28;20058;-71
2021/08/24 00:36:27;;;;;;;13.15;7.75;;;;;;;;;;5011535;28;20058;-71
2021/08/24 00:39:12;;;;;;;13.45;8.25;;;;;;;;;;5011313;28;20460;-71
2021/08/24 00:41:58;;;;;;;9.88;7.28;;;;;;;;;;4996667;28;20046;-71
2021/08/24 00:44:46;;;;;;;14.98;8.38;;;;;;;;;;5011141;28;20049;-70
2021/08/24 00:47:32;;;;;;;10.27;7.47;;;;;;;;;;4997450;28;20080;-71
2021/08/24 00:50:34;;;;;;;14.57;8.57;;;;;;;;;;4984021;28;20049;-71
2021/08/24 00:53:20;;;;;;;12.10;7.78;;;;;;;;;;4997475;28;20062;-71
2021/08/24 00:56:06;;;;;;;11.60;7.80;;;;;;;;;;4997448;28;20129;-70
2021/08/24 00:58:51;;;;;;;13.48;7.80;;;;;;;;;;4991514;28;20543;-71
2021/08/24 01:01:36;;;;;;;18.23;7.90;;;;;;;;;;4991510;28;20058;-70
2021/08/24 01:04:21;;;;;;;13.43;9.45;;;;;;;;;;4991536;28;20058;-72
2021/08/24 01:07:10;;;;;;;10.18;8.30;;;;;;;;;;4964178;28;20058;-72
2021/08/24 01:10:08;;;;;;;12.60;8.50;;;;;;;;;;4977934;28;20139;-71
2021/08/24 01:12:59;;;;;;;14.27;7.78;;;;;;;;;;5006398;28;20509;-71
2021/08/24 01:15:50;;;;;;;14.63;7.43;;;;;;;;;;4996924;28;20655;-71
2021/08/24 01:18:41;;;;;;;13.07;7.05;;;;;;;;;;4998834;28;20061;-72
2021/08/24 01:22:01;;;;;;;15.13;7.97;;;;;;;;;;5000266;28;20086;-72
2021/08/24 01:24:57;;;;;;;12.85;7.43;;;;;;;;;;4974467;28;20055;-70
2021/08/24 01:27:44;;;;;;;13.73;6.93;;;;;;;;;;5000852;28;20121;-70
2021/08/24 01:30:36;;;;;;;11.85;7.18;;;;;;;;;;5001143;28;20184;-71
2021/08/24 01:33:39;;;;;;;11.90;8.00;;;;;;;;;;5015120;28;20488;-70
2021/08/24 01:36:28;;;;;;;13.50;7.95;;;;;;;;;;5014000;28;20081;-71
2021/08/24 01:39:20;;;;;;;12.43;7.53;;;;;;;;;;4987448;28;20053;-71
2021/08/24 01:42:18;;;;;;;13.57;8.50;;;;;;;;;;5015008;28;20050;-70
2021/08/24 01:45:06;;;;;;;13.93;7.85;;;;;;;;;;5000748;28;20054;-70
2021/08/24 01:47:55;;;;;;;11.77;8.02;;;;;;;;;;5015863;28;20053;-70
2021/08/24 01:50:42;;;;;;;12.15;8.05;;;;;;;;;;5000163;28;20053;-70
2021/08/24 01:53:28;;;;;;;13.68;8.73;;;;;;;;;;5014443;28;20085;-71
2021/08/24 01:56:15;;;;;;;14.48;8.90;;;;;;;;;;5001121;28;20448;-71
2021/08/24 01:59:04;;;;;;;11.70;8.40;;;;;;;;;;5000705;28;20058;-70
2021/08/24 02:02:16;;;;;;;15.55;8.15;;;;;;;;;;5000625;28;20059;-70
2021/08/24 02:05:11;;;;;;;14.40;8.15;;;;;;;;;;5014247;28;20058;-71
2021/08/24 02:08:01;;;;;;;12.82;8.75;;;;;;;;;;5000448;28;20512;-71
2021/08/24 02:10:46;;;;;;;15.38;8.93;;;;;;;;;;5000512;28;20053;-71
2021/08/24 02:13:42;;;;;;;11.15;8.90;;;;;;;;;;4986573;28;20046;-70
2021/08/24 02:16:27;;;;;;;15.63;9.85;;;;;;;;;;5014357;28;20058;-71
2021/08/24 02:19:13;;;;;;;14.55;9.52;;;;;;;;;;5066303;23;20414;-72
2021/08/24 02:22:00;;;;;;;17.02;10.10;;;;;;;;;;5020156;28;20140;-72
2021/08/24 02:24:51;;;;;;;21.92;10.27;;;;;;;;;;5019909;28;20057;-72
2021/08/24 02:27:38;;;;;;;18.17;11.35;;;;;;;;;;5019878;28;20057;-72
2021/08/24 02:30:23;;;;;;;15.43;10.52;;;;;;;;;;5018814;28;20049;-72
2021/08/24 02:33:09;;;;;;;21.83;11.07;;;;;;;;;;5019341;28;20050;-72
2021/08/24 02:35:55;;;;;;;12.95;10.68;;;;;;;;;;5019584;28;20053;-72
2021/08/24 02:38:40;;;;;;;15.68;10.68;;;;;;;;;;5019472;28;20504;-72
2021/08/24 02:41:30;;;;;;;16.40;11.38;;;;;;;;;;5031381;28;20060;-72
2021/08/24 02:44:20;;;;;;;17.60;11.75;;;;;;;;;;5032206;28;20107;-73
2021/08/24 02:47:06;;;;;;;16.00;11.88;;;;;;;;;;5033199;28;20061;-73
2021/08/24 02:49:52;;;;;;;14.95;11.88;;;;;;;;;;5038986;28;20056;-72
2021/08/24 02:52:38;;;;;;;20.35;12.27;;;;;;;;;;5052824;28;20053;-72
2021/08/24 02:55:23;;;;;;;14.82;10.88;;;;;;;;;;5051929;28;20123;-73
2021/08/24 02:58:08;;;;;;;20.42;11.95;;;;;;;;;;5038997;28;20491;-73
2021/08/24 03:00:53;;;;;;;19.05;12.82;;;;;;;;;;5052833;28;20044;-73
2021/08/24 03:03:38;;;;;;;18.38;12.23;;;;;;;;;;5051499;28;20064;-73
2021/08/24 03:06:23;;;;;;;19.38;12.13;;;;;;;;;;5038889;28;20045;-73
2021/08/24 03:09:09;;;;;;;16.23;12.35;;;;;;;;;;5046789;28;20049;-73
2021/08/24 03:11:59;;;;;;;20.67;12.00;;;;;;;;;;5018922;28;20061;-73
2021/08/24 03:14:56;;;;;;;20.98;12.60;;;;;;;;;;5027812;28;20057;-73
2021/08/24 03:17:50;;;;;;;19.77;12.43;;;;;;;;;;5038703;28;20392;-73
2021/08/24 03:20:36;;;;;;;18.92;12.77;;;;;;;;;;5052497;28;20049;-73
2021/08/24 03:23:22;;;;;;;20.95;12.68;;;;;;;;;;5052857;28;20088;-73
2021/08/24 03:26:07;;;;;;;24.02;14.23;;;;;;;;;;5038557;28;20128;-73
2021/08/24 03:28:52;;;;;;;21.05;13.13;;;;;;;;;;5037180;28;20056;-73
2021/08/24 03:31:38;;;;;;;25.35;12.90;;;;;;;;;;5038394;28;20057;-73
2021/08/24 03:34:23;;;;;;;20.02;11.68;;;;;;;;;;5052386;28;20053;-73
2021/08/24 03:37:09;;;;;;;21.45;11.68;;;;;;;;;;5038200;28;20057;-73
2021/08/24 03:39:54;;;;;;;22.50;12.85;;;;;;;;;;5052198;28;20053;-73
2021/08/24 03:42:39;;;;;;;18.58;12.27;;;;;;;;;;5052181;28;20084;-73
2021/08/24 03:45:24;;;;;;;19.63;12.95;;;;;;;;;;5051750;28;20063;-73
2021/08/24 03:48:09;;;;;;;21.13;12.80;;;;;;;;;;5051963;28;20052;-73
2021/08/24 03:50:55;;;;;;;19.58;13.48;;;;;;;;;;5052376;28;20444;-73
2021/08/24 03:53:39;;;;;;;23.15;13.38;;;;;;;;;;5051657;28;20053;-73
2021/08/24 03:56:25;;;;;;;20.45;12.75;;;;;;;;;;5051919;28;20061;-73
2021/08/24 03:59:10;;;;;;;20.15;12.70;;;;;;;;;;5050757;28;20558;-73
2021/08/24 04:01:55;;;;;;;20.35;12.02;;;;;;;;;;5051723;28;20053;-73
2021/08/24 04:04:41;;;;;;;20.38;13.07;;;;;;;;;;5051760;28;20408;-73
2021/08/24 04:07:26;;;;;;;20.42;14.70;;;;;;;;;;5051654;28;20128;-73
2021/08/24 04:10:11;;;;;;;22.67;13.85;;;;;;;;;;5051642;28;20056;-73
2021/08/24 04:12:57;;;;;;;21.73;13.40;;;;;;;;;;5036235;28;20052;-73
2021/08/24 04:15:42;;;;;;;24.27;16.05;;;;;;;;;;5051719;28;20199;-73
2021/08/24 04:18:27;;;;;;;25.30;15.60;;;;;;;;;;5051284;28;20060;-73
2021/08/24 04:21:13;;;;;;;21.20;15.55;;;;;;;;;;5051337;28;20049;-73
2021/08/24 04:23:58;;;;;;;24.08;15.35;;;;;;;;;;5051408;28;20049;-73
2021/08/24 04:26:43;;;;;;;27.25;15.48;;;;;;;;;;5051326;28;20503;-73
2021/08/24 04:29:29;;;;;;;25.98;15.48;;;;;;;;;;5036350;28;20050;-73
2021/08/24 04:32:16;;;;;;;25.92;15.35;;;;;;;;;;5037370;28;20061;-73
2021/08/24 04:35:01;;;;;;;25.23;15.77;;;;;;;;;;5037037;28;20057;-73
2021/08/24 04:37:46;;;;;;;26.42;15.77;;;;;;;;;;5037202;28;20081;-73
2021/08/24 04:40:32;;;;;;;28.08;14.95;;;;;;;;;;5037313;28;20174;-73
2021/08/24 04:43:18;;;;;;;23.90;15.13;;;;;;;;;;5039144;28;20090;-73
2021/08/24 04:46:04;;;;;;;22.38;14.05;;;;;;;;;;5017412;28;20049;-72
2021/08/24 04:48:49;;;;;;;23.25;14.23;;;;;;;;;;5031026;28;20128;-72
2021/08/24 04:51:35;;;;;;;25.63;13.88;;;;;;;;;;5017245;28;20061;-72
2021/08/24 04:54:20;;;;;;;21.58;14.38;;;;;;;;;;5030379;28;20053;-72
2021/08/24 04:57:05;;;;;;;19.17;14.07;;;;;;;;;;5019420;28;20057;-73
2021/08/24 04:59:51;;;;;;;23.83;14.60;;;;;;;;;;5036859;28;20052;-72
2021/08/24 05:02:36;;;;;;;18.15;13.35;;;;;;;;;;5051251;28;20387;-72
2021/08/24 05:05:21;;;;;;;20.60;12.57;;;;;;;;;;5050603;28;20057;-72
2021/08/24 05:08:06;;;;;;;18.13;11.95;;;;;;;;;;5039676;28;20061;-72
2021/08/24 05:10:52;;;;;;;18.73;10.68;;;;;;;;;;5050641;28;20517;-73
2021/08/24 05:13:38;;;;;;;17.70;10.93;;;;;;;;;;5050369;28;20049;-73
2021/08/24 05:16:23;;;;;;;20.65;12.25;;;;;;;;;;5036752;28;20131;-73
2021/08/24 05:19:08;;;;;;;15.15;11.38;;;;;;;;;;5036573;28;20061;-73
2021/08/24 05:21:53;;;;;;;18.40;11.57;;;;;;;;;;5050473;28;20081;-73
2021/08/24 05:24:38;;;;;;;16.30;10.98;;;;;;;;;;5034706;28;20124;-73
2021/08/24 05:27:23;;;;;;;19.13;11.77;;;;;;;;;;5030387;28;20049;-73
2021/08/24 05:30:10;;;;;;;14.50;11.45;;;;;;;;;;5031744;28;20057;-73
2021/08/24 05:32:55;;;;;;;15.85;10.55;;;;;;;;;;5016699;28;20133;-73
2021/08/24 05:35:40;;;;;;;16.08;10.60;;;;;;;;;;5029851;28;20081;-72
2021/08/24 05:38:25;;;;;;;16.20;10.80;;;;;;;;;;5031786;28;20062;-72
2021/08/24 05:41:11;;;;;;;13.05;8.70;;;;;;;;;;5033650;28;20492;-73
2021/08/24 05:43:56;;;;;;;12.80;10.68;;;;;;;;;;5057182;28;20084;-73
2021/08/24 05:46:41;;;;;;;15.18;8.98;;;;;;;;;;5044748;28;20045;-73
2021/08/24 05:49:26;;;;;;;13.93;9.60;;;;;;;;;;5016627;28;20151;-73
2021/08/24 05:52:11;;;;;;;13.07;9.38;;;;;;;;;;5030737;28;20068;-73
2021/08/24 05:54:56;;;;;;;15.85;9.77;;;;;;;;;;5031325;28;20649;-72
2021/08/24 05:57:42;;;;;;;11.15;8.52;;;;;;;;;;5032597;28;20049;-73
2021/08/24 06:00:27;;;;;;;16.85;8.77;;;;;;;;;;5037341;28;20046;-73
2021/08/24 06:03:13;;;;;;;14.63;9.05;;;;;;;;;;5051603;28;20550;-74
2021/08/24 06:05:58;;;;;;;10.10;8.90;;;;;;;;;;5053592;28;20052;-73
2021/08/24 06:08:43;;;;;;;12.23;8.27;;;;;;;;;;5037346;28;20136;-73
2021/08/24 06:11:29;;;;;;;11.30;7.70;;;;;;;;;;5033996;28;20634;-73
2021/08/24 06:14:15;;;;;;;13.60;9.18;;;;;;;;;;5033645;28;20057;-73
2021/08/24 06:17:00;;;;;;;8.25;7.18;;;;;;;;;;5033811;28;20057;-73
2021/08/24 06:19:45;;;;;;;10.98;7.60;;;;;;;;;;5033791;28;20057;-74
2021/08/24 06:22:30;;;;;;;11.88;8.23;;;;;;;;;;5033693;28;20495;-73
2021/08/24 06:25:15;;;;;;;11.93;7.13;;;;;;;;;;5033276;28;20129;-74
2021/08/24 06:28:01;;;;;;;12.80;7.93;;;;;;;;;;5035910;28;20045;-73
2021/08/24 06:30:46;;;;;;;12.82;7.70;;;;;;;;;;5053698;28;20052;-74
2021/08/24 06:33:32;;;;;;;12.07;7.53;;;;;;;;;;5053196;28;20060;-74
2021/08/24 06:36:18;;;;;;;13.68;8.90;;;;;;;;;;5039506;28;20067;-74
2021/08/24 06:39:03;;;;;;;13.15;8.60;;;;;;;;;;5051994;28;20053;-74
2021/08/24 06:41:48;;;;;;;12.07;8.15;;;;;;;;;;5053360;28;20075;-73
2021/08/24 06:44:33;;;;;;;9.52;7.45;;;;;;;;;;5052963;28;20052;-74
2021/08/24 06:47:18;;;;;;;9.75;7.68;;;;;;;;;;5052396;28;20045;-74
2021/08/24 06:50:04;;;;;;;9.18;6.45;;;;;;;;;;5039261;28;20507;-74
2021/08/24 06:52:49;;;;;;;9.63;5.93;;;;;;;;;;5053248;28;20120;-74
2021/08/24 06:55:34;;;;;;;8.93;5.78;;;;;;;;;;5048580;28;20053;-74
2021/08/24 06:58:19;;;;;;;6.63;5.38;;;;;;;;;;5034180;28;20061;-74
2021/08/24 07:01:04;;;;;;;9.75;5.57;;;;;;;;;;5028471;28;20053;-74
2021/08/24 07:03:50;;;;;;;8.90;5.63;;;;;;;;;;5043401;28;20053;-74
2021/08/24 07:06:35;;;;;;;9.38;6.00;;;;;;;;;;5029030;28;20049;-74
2021/08/24 07:09:20;;;;;;;7.03;4.70;;;;;;;;;;5043838;28;20045;-74
2021/08/24 07:12:05;;;;;;;8.85;5.32;;;;;;;;;;5052742;28;20056;-74
2021/08/24 07:14:50;;;;;;;7.63;5.20;;;;;;;;;;5052495;28;20057;-74
2021/08/24 07:17:35;;;;;;;7.38;4.63;;;;;;;;;;5051307;28;20053;-74
2021/08/24 07:20:21;;;;;;;10.75;5.88;;;;;;;;;;5052868;28;20523;-74
2021/08/24 07:23:07;;;;;;;12.50;5.70;;;;;;;;;;5052736;28;20044;-74
2021/08/24 07:25:52;;;;;;;10.55;4.97;;;;;;;;;;5038462;28;20057;-74
2021/08/24 07:28:37;;;;;;;9.52;5.30;;;;;;;;;;5032666;28;20058;-74
2021/08/24 07:31:22;;;;;;;6.40;3.55;;;;;;;;;;5032765;28;20125;-74
2021/08/24 07:34:09;;;;;;;7.53;4.85;;;;;;;;;;5032465;28;20045;-74
2021/08/24 07:36:54;;;;;;;8.25;4.68;;;;;;;;;;5033565;28;20120;-74
2021/08/24 07:39:39;;;;;;;6.97;4.07;;;;;;;;;;5052381;28;20380;-74
2021/08/24 07:42:24;;;;;;;6.45;3.22;;;;;;;;;;5053468;28;20393;-74
2021/08/24 07:45:09;;;;;;;6.35;3.13;;;;;;;;;;5051866;28;20056;-75
2021/08/24 07:47:54;;;;;;;8.18;3.50;;;;;;;;;;5043616;28;20050;-74
2021/08/24 07:50:40;;;;;;;6.72;2.55;;;;;;;;;;5033376;28;20049;-74
2021/08/24 07:53:25;;;;;;;7.22;2.75;;;;;;;;;;5018119;28;20049;-74
2021/08/24 07:56:10;;;;;;;6.30;2.70;;;;;;;;;;5032029;28;20049;-75
2021/08/24 07:58:55;;;;;;;5.22;2.83;;;;;;;;;;5039101;28;20145;-75
2021/08/24 08:01:42;;;;;;;6.88;2.55;;;;;;;;;;5042230;28;20059;-74
2021/08/24 08:04:27;;;;;;;6.40;2.60;;;;;;;;;;5042160;28;20123;-74
2021/08/24 08:07:13;;;;;;;6.43;3.05;;;;;;;;;;5028944;28;20487;-74
2021/08/24 08:09:58;;;;;;;4.03;2.15;;;;;;;;;;5037223;28;20049;-75
2021/08/24 08:12:44;;;;;;;5.85;2.95;;;;;;;;;;5042164;28;20138;-74
2021/08/24 08:15:32;;;;;;;6.22;2.55;;;;;;;;;;5032806;28;20059;-74
2021/08/24 08:18:17;;;;;;;9.05;2.30;;;;;;;;;;5070961;23;20052;-73
2021/08/24 08:21:04;;;;;;;6.00;2.70;;;;;;;;;;5017587;28;20053;-73
2021/08/24 08:23:49;;;;;;;6.15;2.35;;;;;;;;;;5030951;28;20133;-72
2021/08/24 08:26:34;;;;;;;5.95;2.38;;;;;;;;;;5030014;28;20049;-73
2021/08/24 08:29:19;;;;;;;7.97;2.92;;;;;;;;;;5021424;28;20053;-72
2021/08/24 08:32:12;;;;;;;3.13;2.08;;;;;;;;;;5022032;28;20080;-72
2021/08/24 08:34:57;;;;;;;6.47;2.22;;;;;;;;;;5001682;28;20053;-72
2021/08/24 08:37:43;;;;;;;5.57;2.40;;;;;;;;;;5007779;28;20058;-73
2021/08/24 08:40:32;;;;;;;4.90;2.17;;;;;;;;;;5022352;28;20050;-72
2021/08/24 08:43:29;;;;;;;3.47;2.13;;;;;;;;;;5007943;28;20081;-72
2021/08/24 08:46:15;;;;;;;5.72;2.42;;;;;;;;;;5010071;28;20057;-74
2021/08/24 08:49:08;;;;;;;3.08;1.85;;;;;;;;;;5026394;28;20520;-74
2021/08/24 08:51:59;;;;;;;7.72;2.47;;;;;;;;;;5016455;28;20483;-74
2021/08/24 08:54:44;;;;;;;6.53;2.57;;;;;;;;;;5017191;28;20053;-74
2021/08/24 08:57:31;;;;;;;5.78;2.78;;;;;;;;;;5030852;28;20080;-73
2021/08/24 09:00:18;;;;;;;5.40;2.47;;;;;;;;;;5030263;28;20050;-74
2021/08/24 09:03:10;;;;;;;5.47;2.13;;;;;;;;;;5030699;28;20060;-74
2021/08/24 09:05:55;;;;;;;4.07;2.65;;;;;;;;;;5031032;28;20049;-74
2021/08/24 09:08:41;;;;;;;3.33;1.83;;;;;;;;;;5015483;28;20045;-74
2021/08/24 09:11:29;;;;;;;7.25;2.63;;;;;;;;;;5030888;28;20097;-74
2021/08/24 09:14:17;;;;;;;5.55;2.53;;;;;;;;;;5016679;28;20057;-73
2021/08/24 09:17:19;;;;;;;3.40;2.63;;;;;;;;;;5017006;28;20065;-73
2021/08/24 09:20:24;;;;;;;3.53;2.50;;;;;;;;;;5029252;28;20060;-73
2021/08/24 09:23:09;;;;;;;4.28;2.25;;;;;;;;;;5031866;28;20057;-72
2021/08/24 09:26:03;;;;;;;3.78;2.13;;;;;;;;;;5017062;28;20049;-72
2021/08/24 09:28:49;;;;;;;4.35;2.30;;;;;;;;;;5031168;28;20053;-73
2021/08/24 09:31:35;;;;;;;3.22;2.20;;;;;;;;;;5002833;28;20132;-72
2021/08/24 09:34:23;;;;;;;4.45;2.35;;;;;;;;;;4996940;28;20089;-72
2021/08/24 09:37:07;;;;;;;4.80;1.92;;;;;;;;;;4997178;28;20050;-72
2021/08/24 09:39:52;;;;;;;7.03;2.33;;;;;;;;;;5012598;28;20065;-72
2021/08/24 09:42:42;;;;;;;7.03;2.10;;;;;;;;;;5032452;28;20124;-73
2021/08/24 09:45:28;;;;;;;6.25;2.45;;;;;;;;;;5030229;28;20053;-73
2021/08/24 09:48:13;;;;;;;4.95;2.13;;;;;;;;;;5020439;28;20053;-73
2021/08/24 09:51:16;;;;;;;2.47;2.00;;;;;;;;;;5019289;28;21920;-73
2021/08/24 09:54:01;;;;;;;3.80;1.73;;;;;;;;;;5019965;28;20053;-72
2021/08/24 09:56:54;;;;;;;3.47;1.80;;;;;;;;;;5020283;28;20053;-72
2021/08/24 09:59:54;;;;;;;4.50;2.30;;;;;;;;;;4998790;28;20053;-72
2021/08/24 10:02:46;;;;;;;4.95;2.55;;;;;;;;;;5011757;28;20049;-71
2021/08/24 10:05:31;;;;;;;3.33;2.42;;;;;;;;;;5015676;28;20081;-65
2021/08/24 10:08:43;;;;;;;5.53;2.20;;;;;;;;;;5035122;28;20081;-65
2021/08/24 10:11:32;;;;;;;3.72;2.03;;;;;;;;;;5033805;28;20053;-65
2021/08/24 10:14:21;;;;;;;4.82;2.25;;;;;;;;;;5015270;28;20054;-65
2021/08/24 10:17:22;;;;;;;3.83;1.92;;;;;;;;;;5015441;28;20046;-64
2021/08/24 10:20:32;;;;;;;4.32;2.55;;;;;;;;;;5014415;28;20050;-65
2021/08/24 10:23:22;;;;;;;3.63;1.75;;;;;;;;;;5014890;28;20050;-65
2021/08/24 10:26:22;;;;;;;5.47;2.30;;;;;;;;;;5015240;28;20523;-65
2021/08/24 10:29:09;;;;;;;5.57;1.95;;;;;;;;;;5014163;28;20042;-64
2021/08/24 10:31:55;;;;;;;5.30;2.60;;;;;;;;;;5014236;28;20500;-65
2021/08/24 10:34:41;;;;;;;4.40;2.00;;;;;;;;;;5014548;28;20057;-65
2021/08/24 10:37:27;;;;;;;3.60;1.70;;;;;;;;;;5015036;28;20054;-65
2021/08/24 10:40:12;;;;;;;4.82;2.42;;;;;;;;;;5015228;28;20053;-65
2021/08/24 10:43:13;;;;;;;3.40;1.80;;;;;;;;;;5016132;28;20053;-65
2021/08/24 10:46:04;;;;;;;4.38;1.85;;;;;;;;;;5034523;28;20504;-65
2021/08/24 10:48:49;;;;;;;3.55;2.10;;;;;;;;;;5032740;28;20424;-65
2021/08/24 10:51:40;;;;;;;3.67;2.42;;;;;;;;;;5033832;28;20057;-65
2021/08/24 10:54:38;;;;;;;4.77;2.20;;;;;;;;;;5030648;28;20057;-65
2021/08/24 10:57:26;;;;;;;4.43;2.08;;;;;;;;;;5034552;28;20316;-65
2021/08/24 11:00:14;;;;;;;5.13;1.90;;;;;;;;;;5033491;28;20053;-64
2021/08/24 11:03:17;;;;;;;5.65;2.10;;;;;;;;;;5034383;28;20053;-65
2021/08/24 11:06:02;;;;;;;3.78;1.80;;;;;;;;;;5014395;28;20453;-64
2021/08/24 11:09:06;;;;;;;3.28;1.80;;;;;;;;;;5014321;28;20054;-65
2021/08/24 11:12:06;;;;;;;5.93;2.13;;;;;;;;;;5014302;28;20050;-65
2021/08/24 11:15:08;;;;;;;4.15;1.90;;;;;;;;;;5021026;28;20057;-65
2021/08/24 11:17:56;;;;;;;3.00;1.40;;;;;;;;;;5033030;28;20045;-65
2021/08/24 11:20:44;;;;;;;2.95;1.60;;;;;;;;;;5034133;28;20057;-65
2021/08/24 11:23:49;;;;;;;2.53;1.48;;;;;;;;;;5033589;28;20053;-65
2021/08/24 11:26:41;;;;;;;4.65;2.30;;;;;;;;;;5030732;28;20045;-66
2021/08/24 11:29:28;;;;;;;2.95;1.73;;;;;;;;;;5014095;28;20045;-65
2021/08/24 11:32:17;;;;;;;2.92;1.70;;;;;;;;;;5013952;28;20053;-65
2021/08/24 11:35:04;;;;;;;3.00;1.65;;;;;;;;;;5013496;28;20053;-65
2021/08/24 11:37:55;;;;;;;3.25;1.58;;;;;;;;;;5033596;28;20483;-64
2021/08/24 11:40:59;;;;;;;4.85;1.67;;;;;;;;;;5033834;28;20053;-66
2021/08/24 11:43:48;;;;;;;4.07;1.92;;;;;;;;;;5033153;28;20053;-69
2021/08/24 11:46:33;;;;;;;3.95;1.40;;;;;;;;;;5016653;28;20054;-70
2021/08/24 11:49:23;;;;;;;3.45;1.85;;;;;;;;;;5033529;28;20045;-69
2021/08/24 11:52:27;;;;;;;3.38;1.70;;;;;;;;;;5015736;28;20053;-69
2021/08/24 11:55:20;;;;;;;3.92;1.65;;;;;;;;;;5012092;28;20132;-69
2021/08/24 11:58:20;;;;;;;3.28;1.50;;;;;;;;;;4998369;28;20057;-70
2021/08/24 12:01:06;;;;;;;3.53;1.50;;;;;;;;;;5013298;28;20054;-69
2021/08/24 12:03:51;;;;;;;2.15;1.38;;;;;;;;;;5011005;28;20128;-69
2021/08/24 12:06:49;;;;;;;2.95;1.83;;;;;;;;;;5012345;28;20049;-69
2021/08/24 12:09:44;;;;;;;4.07;1.75;;;;;;;;;;5012157;28;20504;-69
2021/08/24 12:12:49;;;;;;;2.53;1.90;;;;;;;;;;5011308;28;20050;-69
2021/08/24 12:15:47;;;;;;;2.17;1.35;;;;;;;;;;5025762;28;20049;-69
2021/08/24 12:18:32;;;;;;;3.00;1.63;;;;;;;;;;4997728;28;20053;-69
2021/08/24 12:21:26;;;;;;;2.10;1.40;;;;;;;;;;5012508;28;20500;-69
2021/08/24 12:24:30;;;;;;;4.38;1.90;;;;;;;;;;5012615;28;20089;-69
2021/08/24 12:27:15;;;;;;;2.05;1.60;;;;;;;;;;5012877;28;20100;-70
2021/08/24 12:30:07;;;;;;;3.30;1.65;;;;;;;;;;5011983;28;20050;-70
2021/08/24 12:32:53;;;;;;;3.75;1.98;;;;;;;;;;4999290;28;20061;-70
2021/08/24 12:35:41;;;;;;;3.58;1.65;;;;;;;;;;5012151;28;20053;-70
2021/08/24 12:38:46;;;;;;;5.65;1.52;;;;;;;;;;5018383;28;20046;-69
2021/08/24 12:41:31;;;;;;;2.40;1.48;;;;;;;;;;5022248;28;20392;-69
2021/08/24 12:44:18;;;;;;;2.08;1.60;;;;;;;;;;5017024;28;20050;-69
2021/08/24 12:47:24;;;;;;;2.85;1.55;;;;;;;;;;5010299;28;20061;-69
2021/08/24 12:50:09;;;;;;;2.83;1.52;;;;;;;;;;5010855;28;20125;-69
2021/08/24 12:52:56;;;;;;;2.58;1.73;;;;;;;;;;5023809;28;20045;-69
2021/08/24 12:55:42;;;;;;;2.78;1.67;;;;;;;;;;5015962;28;20076;-69
2021/08/24 12:58:45;;;;;;;2.85;1.52;;;;;;;;;;5030617;28;20081;-69
2021/08/24 13:01:30;;;;;;;3.42;1.65;;;;;;;;;;5016261;28;20061;-69
2021/08/24 13:04:15;;;;;;;2.90;1.70;;;;;;;;;;5016003;28;20058;-69
2021/08/24 13:07:13;;;;;;;2.15;1.60;;;;;;;;;;5030598;28;20057;-69
2021/08/24 13:09:58;;;;;;;2.70;1.38;;;;;;;;;;5031467;28;20053;-70
2021/08/24 13:12:44;;;;;;;2.30;1.35;;;;;;;;;;5015171;28;20084;-69
2021/08/24 13:15:42;;;;;;;2.20;1.63;;;;;;;;;;5029770;28;20124;-70
2021/08/24 13:18:29;;;;;;;2.30;1.45;;;;;;;;;;5029753;28;20061;-70
2021/08/24 13:21:54;;;;;;;1.60;1.40;;;;;;;;;;5030400;28;20488;-70
2021/08/24 13:24:45;;;;;;;2.42;1.30;;;;;;;;;;5026894;28;20404;-70
2021/08/24 13:27:35;;;;;;;3.50;1.38;;;;;;;;;;5028830;28;20054;-70
2021/08/24 13:30:28;;;;;;;2.25;1.55;;;;;;;;;;4996376;28;20050;-69
2021/08/24 13:33:15;;;;;;;2.30;1.60;;;;;;;;;;5012749;28;20050;-70
2021/08/24 13:36:03;;;;;;;5.97;1.40;;;;;;;;;;5031227;28;20072;-69
2021/08/24 13:38:49;;;;;;;2.85;1.60;;;;;;;;;;5031375;28;20050;-69
2021/08/24 13:41:38;;;;;;;6.32;2.22;;;;;;;;;;5031272;28;20053;-69
2021/08/24 13:44:36;;;;;;;4.47;1.67;;;;;;;;;;5028162;28;20062;-69
2021/08/24 13:47:21;;;;;;;5.00;1.50;;;;;;;;;;5030043;28;20057;-69
2021/08/24 13:50:07;;;;;;;4.05;1.77;;;;;;;;;;5012830;28;20085;-69
2021/08/24 13:52:59;;;;;;;3.67;1.50;;;;;;;;;;5028035;28;20042;-69
2021/08/24 13:55:51;;;;;;;3.50;1.20;;;;;;;;;;4997210;28;20050;-70
2021/08/24 13:58:36;;;;;;;;;;;;;;;;;;5010876;28;20053;-70
2021/08/24 14:01:22;;;;;;;4.28;1.65;;;;;;;;;;5010493;28;19921;-70
2021/08/24 14:04:18;;;;;;;2.95;1.33;;;;;;;;;;5011026;28;20049;-70
2021/08/24 14:07:03;;;;;;;1.88;1.35;;;;;;;;;;5010379;28;20050;-69
2021/08/24 14:09:50;;;;;;;7.50;2.20;;;;;;;;;;5010813;28;20081;-70
2021/08/24 14:12:38;;;;;;;2.20;1.38;;;;;;;;;;5010713;28;20137;-70
2021/08/24 14:15:31;;;;;;;2.40;1.13;;;;;;;;;;5010898;28;20058;-70
2021/08/24 14:18:25;;;;;;;1.52;1.40;;;;;;;;;;4995496;28;20058;-70
2021/08/24 14:21:11;;;;;;;3.10;1.70;;;;;;;;;;5009229;28;20061;-70
2021/08/24 14:24:04;;;;;;;5.35;1.45;;;;;;;;;;5016005;28;20460;-69
2021/08/24 14:26:50;;;;;;;2.47;1.58;;;;;;;;;;5030276;28;20050;-70
2021/08/24 14:29:35;;;;;;;4.97;1.45;;;;;;;;;;5033059;28;20107;-69
2021/08/24 14:32:37;;;;;;;2.13;1.30;;;;;;;;;;5018464;28;20049;-70
2021/08/24 14:35:41;;;;;;;2.10;1.42;;;;;;;;;;5032660;28;20128;-70
2021/08/24 14:38:30;;;;;;;4.72;2.10;;;;;;;;;;5033125;28;20380;-70
2021/08/24 14:41:17;;;;;;;2.15;1.52;;;;;;;;;;5033735;28;20081;-70
2021/08/24 14:44:20;;;;;;;3.50;1.80;;;;;;;;;;5033497;28;20045;-70
2021/08/24 14:47:09;;;;;;;3.78;1.70;;;;;;;;;;5018365;28;20058;-70
2021/08/24 14:49:54;;;;;;;1.83;1.10;;;;;;;;;;5033450;28;20053;-69
2021/08/24 14:52:49;;;;;;;3.22;1.67;;;;;;;;;;5033479;28;20084;-70
2021/08/24 14:55:35;;;;;;;2.13;1.50;;;;;;;;;;5033259;28;20507;-70
2021/08/24 14:58:21;;;;;;;2.50;1.63;;;;;;;;;;5027399;28;20552;-70
2021/08/24 15:01:10;;;;;;;4.13;1.40;;;;;;;;;;5018350;28;20050;-69
2021/08/24 15:03:56;;;;;;;4.15;1.58;;;;;;;;;;5014236;28;20050;-70
2021/08/24 15:06:45;;;;;;;4.43;2.35;;;;;;;;;;5013645;28;20050;-71
2021/08/24 15:09:48;;;;;;;1.83;1.55;;;;;;;;;;5014546;28;20049;-70
2021/08/24 15:12:34;;;;;;;2.67;1.98;;;;;;;;;;5014928;28;20081;-71
2021/08/24 15:15:26;;;;;;;2.03;1.27;;;;;;;;;;5018157;28;20457;-71
2021/08/24 15:18:12;;;;;;;3.65;1.63;;;;;;;;;;5013264;28;20472;-71
2021/08/24 15:20:58;;;;;;;2.33;1.73;;;;;;;;;;5013004;28;20464;-69
2021/08/24 15:23:43;;;;;;;2.38;1.95;;;;;;;;;;5012564;28;20517;-70
2021/08/24 15:26:28;;;;;;;2.45;1.88;;;;;;;;;;5013078;28;20046;-70
2021/08/24 15:29:17;;;;;;;1.88;1.60;;;;;;;;;;5021517;28;20042;-70
2021/08/24 15:32:04;;;;;;;2.38;1.42;;;;;;;;;;5024384;28;20480;-70
2021/08/24 15:34:50;;;;;;;2.35;1.75;;;;;;;;;;5024164;28;20045;-70
2021/08/24 15:37:37;;;;;;;4.80;1.90;;;;;;;;;;5025892;28;20052;-70
2021/08/24 15:40:23;;;;;;;1.90;1.40;;;;;;;;;;5012188;28;20409;-70
2021/08/24 15:43:08;;;;;;;2.10;1.35;;;;;;;;;;5012235;28;20054;-70
2021/08/24 15:45:53;;;;;;;3.30;1.67;;;;;;;;;;5011519;28;20054;-70
2021/08/24 15:48:39;;;;;;;2.13;1.58;;;;;;;;;;5011587;28;20049;-70
2021/08/24 15:51:24;;;;;;;6.38;2.22;;;;;;;;;;5013843;28;20121;-70
2021/08/24 15:54:14;;;;;;;2.90;1.95;;;;;;;;;;5011329;28;20058;-70
2021/08/24 15:56:59;;;;;;;2.47;2.05;;;;;;;;;;5010087;28;20050;-70
2021/08/24 15:59:44;;;;;;;2.78;1.90;;;;;;;;;;5009325;28;20058;-70
2021/08/24 16:02:29;;;;;;;1.50;1.25;;;;;;;;;;5008439;28;20129;-70
2021/08/24 16:05:16;;;;;;;3.95;1.92;;;;;;;;;;5009324;28;20054;-70
2021/08/24 16:08:01;;;;;;;4.07;2.10;;;;;;;;;;5004449;28;20120;-70
2021/08/24 16:10:47;;;;;;;3.45;1.83;;;;;;;;;;5019479;28;20062;-69
2021/08/24 16:13:32;;;;;;;3.38;1.55;;;;;;;;;;5007674;28;20053;-70
2021/08/24 16:16:17;;;;;;;2.88;1.80;;;;;;;;;;5020817;28;20049;-69
2021/08/24 16:19:03;;;;;;;2.05;1.48;;;;;;;;;;5021674;28;20057;-70
2021/08/24 16:21:48;;;;;;;2.67;1.67;;;;;;;;;;5020258;28;20046;-70
2021/08/24 16:24:33;;;;;;;3.20;1.92;;;;;;;;;;5019437;28;20045;-70
2021/08/24 16:27:18;;;;;;;2.75;1.90;;;;;;;;;;5021142;28;20050;-70
2021/08/24 16:30:04;;;;;;;3.00;2.00;;;;;;;;;;5024207;28;20061;-70
2021/08/24 16:32:49;;;;;;;3.47;2.00;;;;;;;;;;5030741;28;20056;-69
2021/08/24 16:35:39;;;;;;;5.60;1.90;;;;;;;;;;5028133;28;20057;-70
2021/08/24 16:38:24;;;;;;;5.10;1.90;;;;;;;;;;5010833;28;20061;-70
2021/08/24 16:41:10;;;;;;;2.90;1.98;;;;;;;;;;4994597;28;20053;-70